Scunthorpe, United Kingdom
Current Conditions -  °F | °C
As of 10:50 PM on Thursday 27 Nov 2014 (Local Time) from EGNJ Reporting Station
Haze Haze  
Wind Chill: 46°   Ceiling: 400
Heat Index: 46°   Visibility: 3mi
Dew Point: 45°   Wind: 2mph
Humidity: 93%   Direction: 40°NE
Pressure: 29.65"   Gusts: NA
Location:  53.58°N, 0.65°W
Report Text: EGNJ 272250Z AUTO 04002KT 5000 BR BKN004/// 08/07 Q1004
Loading
Personal Weather Stations






























Interactive Weather Map New forecast layout! Learn more

10-Day Weather Forecast

Advertisements
Track Severe Weather on mobile